Time;durP1;ratioP1;P1;durP2;ratioP2;P2;SDS_P1;SDS_P2;PMS_P1;PMS_P2;Temp;Humidity;BMP_temperature;BMP_pressure;BME280_temperature;BME280_humidity;BME280_pressure;Samples;Min_cycle;Max_cycle;Signal;HPM_P1;HPM_P2
2022/01/31 00:01:54;;;;;;;4.75;2.72;;;;;;;1.44;77.73;98036.50;1777075;79;20987;-73
2022/01/31 00:04:21;;;;;;;4.55;2.70;;;;;;;1.43;77.69;98019.72;1786986;79;21031;-74
2022/01/31 00:06:48;;;;;;;6.95;3.65;;;;;;;1.42;77.59;98020.67;1791702;79;20963;-75
2022/01/31 00:09:17;;;;;;;8.68;3.65;;;;;;;1.40;77.52;98019.97;1773042;79;21017;-75
2022/01/31 00:11:53;;;;;;;8.10;4.25;;;;;;;1.38;77.42;98019.27;1776817;79;22778;-75
2022/01/31 00:14:29;;;;;;;5.25;2.87;;;;;;;1.36;77.35;98028.50;1780154;79;20953;-75
2022/01/31 00:16:45;;;;;;;4.30;2.95;;;;;;;1.34;77.30;98026.47;1779406;79;20984;-74
2022/01/31 00:19:11;;;;;;;3.08;1.90;;;;;;;1.31;77.23;98025.42;1783557;79;21024;-74
2022/01/31 00:21:38;;;;;;;2.65;1.70;;;;;;;1.30;77.22;98030.75;1769929;79;21019;-74
2022/01/31 00:24:05;;;;;;;2.95;1.57;;;;;;;1.29;77.25;98031.70;1794426;79;21836;-74
2022/01/31 00:26:33;;;;;;;2.62;1.77;;;;;;;1.28;77.26;98027.45;1790992;79;21526;-74
2022/01/31 00:29:00;;;;;;;2.52;1.80;;;;;;;1.26;77.29;98026.28;1793647;79;21008;-74
2022/01/31 00:31:26;;;;;;;2.95;2.10;;;;;;;1.26;77.38;98028.05;1778786;79;20968;-74
2022/01/31 00:33:52;;;;;;;3.47;1.90;;;;;;;1.25;77.43;98022.47;1790630;79;21071;-73
2022/01/31 00:36:19;;;;;;;1.57;1.10;;;;;;;1.25;77.41;98025.07;1770193;80;21821;-74
2022/01/31 00:38:45;;;;;;;2.37;1.40;;;;;;;1.25;77.46;98034.17;1781096;80;20992;-74
2022/01/31 00:41:12;;;;;;;2.00;1.40;;;;;;;1.25;77.54;98026.37;1772262;80;21031;-74
2022/01/31 00:43:38;;;;;;;3.10;1.40;;;;;;;1.27;77.61;98038.80;1775204;80;20980;-73
2022/01/31 00:46:12;;;;;;;2.85;1.45;;;;;;;1.28;77.65;98028.75;1750187;80;20960;-74
2022/01/31 00:48:41;;;;;;;3.62;1.40;;;;;;;1.31;77.67;98019.40;1768337;80;22842;-74
2022/01/31 00:51:02;;;;;;;2.55;1.52;;;;;;;1.31;77.66;98017.63;1781341;80;20976;-74
2022/01/31 00:53:29;;;;;;;1.87;1.30;;;;;;;1.32;77.65;98018.45;1748534;80;21008;-75
2022/01/31 00:55:55;;;;;;;2.00;1.20;;;;;;;1.33;77.65;98019.63;1764986;80;21480;-75
2022/01/31 00:58:21;;;;;;;2.50;1.30;;;;;;;1.33;77.62;98007.92;1772070;80;21016;-74
2022/01/31 01:00:48;;;;;;;1.87;1.20;;;;;;;1.33;77.61;98013.13;1775738;80;22193;-74
2022/01/31 01:03:15;;;;;;;2.08;1.30;;;;;;;1.34;77.58;98014.77;1767743;80;21380;-75
2022/01/31 01:05:42;;;;;;;2.30;1.40;;;;;;;1.33;77.56;98004.02;1783298;80;21467;-75
2022/01/31 01:08:08;;;;;;;2.50;1.22;;;;;;;1.35;77.55;98000.84;1783729;80;21478;-75
2022/01/31 01:10:35;;;;;;;2.58;1.25;;;;;;;1.36;77.53;98002.97;1752290;81;20932;-74
2022/01/31 01:13:02;;;;;;;3.27;1.37;;;;;;;1.34;77.55;97999.64;1775369;80;22457;-75
2022/01/31 01:15:28;;;;;;;2.02;0.95;;;;;;;1.35;77.57;98007.80;1767263;80;20853;-75
2022/01/31 01:17:55;;;;;;;2.08;1.07;;;;;;;1.34;77.58;98000.47;1765562;80;20964;-75
2022/01/31 01:20:21;;;;;;;2.00;1.40;;;;;;;1.34;77.62;97997.04;1769379;80;21004;-73
2022/01/31 01:22:48;;;;;;;2.35;1.32;;;;;;;1.32;77.71;97997.64;1764905;80;21004;-74
2022/01/31 01:25:16;;;;;;;1.98;1.20;;;;;;;1.31;77.79;98002.50;1767901;80;21708;-73
2022/01/31 01:27:45;;;;;;;2.15;1.10;;;;;;;1.29;77.84;97994.82;1778772;80;20987;-74
2022/01/31 01:30:14;;;;;;;1.70;1.20;;;;;;;1.27;77.93;97990.70;1766835;80;21499;-75
2022/01/31 01:35:13;;;;;;;2.30;1.30;;;;;;;1.21;78.16;97987.27;1765648;79;20996;-74
2022/01/31 01:37:40;;;;;;;2.10;1.10;;;;;;;1.20;78.25;97990.83;1787161;79;22463;-74
2022/01/31 01:40:08;;;;;;;2.10;1.20;;;;;;;1.19;78.40;97985.27;1774598;79;21448;-75
2022/01/31 01:42:34;;;;;;;2.30;1.45;;;;;;;1.18;78.54;97992.25;1781056;80;21459;-74
2022/01/31 01:45:01;;;;;;;1.90;1.35;;;;;;;1.17;78.64;97988.48;1791802;79;21046;-74
2022/01/31 01:47:30;;;;;;;1.95;1.37;;;;;;;1.18;78.69;97990.95;1783274;79;20932;-75
2022/01/31 01:49:56;;;;;;;1.82;1.20;;;;;;;1.18;78.82;97983.63;1801694;77;22664;-75
2022/01/31 01:52:25;;;;;;;1.72;1.10;;;;;;;1.19;78.85;97985.27;1795340;77;21010;-74
2022/01/31 01:54:51;;;;;;;2.12;1.15;;;;;;;1.19;78.87;97984.80;1809249;79;20979;-74
2022/01/31 01:57:21;;;;;;;1.72;1.20;;;;;;;1.20;78.88;97981.72;1793045;77;20959;-74
2022/01/31 01:59:48;;;;;;;2.92;1.35;;;;;;;1.20;78.89;97981.25;1783435;79;21392;-74
2022/01/31 02:02:25;;;;;;;2.52;1.70;;;;;;;1.20;78.90;97979.95;1781357;79;21852;-75
2022/01/31 02:04:52;;;;;;;1.77;1.30;;;;;;;1.22;78.85;97985.84;1759551;80;20992;-74
2022/01/31 02:07:30;;;;;;;1.92;1.45;;;;;;;1.23;78.75;97990.57;1777336;79;21054;-74
2022/01/31 02:09:57;;;;;;;1.82;1.30;;;;;;;1.24;78.67;97982.64;1802729;79;20985;-73
2022/01/31 02:12:26;;;;;;;3.17;2.12;;;;;;;1.27;78.56;97980.30;1796719;79;20989;-74
2022/01/31 02:14:53;;;;;;;1.90;1.27;;;;;;;1.26;78.44;97972.97;1791913;79;21857;-76
2022/01/31 02:17:23;;;;;;;2.02;1.20;;;;;;;1.27;78.23;97980.30;1726611;79;20989;-76
2022/01/31 02:19:53;;;;;;;2.10;1.20;;;;;;;1.29;78.10;97984.89;1806983;79;20969;-74
2022/01/31 02:22:22;;;;;;;2.40;1.40;;;;;;;1.29;77.82;97981.82;1781991;79;21076;-75
2022/01/31 02:24:48;;;;;;;1.50;0.90;;;;;;;1.30;77.64;97989.97;1789705;79;21372;-74
2022/01/31 02:27:35;;;;;;;1.27;0.90;;;;;;;1.29;77.47;97975.31;1800457;79;22216;-74
2022/01/31 02:30:10;;;;;;;1.60;0.90;;;;;;;1.29;77.36;97990.09;1803021;78;21456;-74
2022/01/31 02:32:38;;;;;;;2.10;1.07;;;;;;;1.26;77.20;97981.25;1742464;79;20968;-73
2022/01/31 02:35:06;;;;;;;1.75;1.15;;;;;;;1.26;77.12;97976.05;1785766;79;21028;-74
2022/01/31 02:37:34;;;;;;;1.12;0.80;;;;;;;1.25;77.00;97980.87;1785949;79;21024;-74
2022/01/31 02:40:11;;;;;;;1.50;1.00;;;;;;;1.24;76.90;97987.02;1791811;79;21835;-74
2022/01/31 02:42:38;;;;;;;2.35;1.60;;;;;;;1.23;76.84;97981.47;1792107;79;20936;-73
2022/01/31 02:45:05;;;;;;;6.22;3.10;;;;;;;1.24;76.73;97994.34;1792569;77;20999;-74
2022/01/31 02:47:38;;;;;;;10.23;5.12;;;;;;;1.26;76.69;97986.45;1792550;79;21031;-73
2022/01/31 02:50:05;;;;;;;8.78;4.20;;;;;;;1.27;76.57;97980.30;1790453;78;21533;-74
2022/01/31 02:52:35;;;;;;;5.40;2.60;;;;;;;1.28;76.48;97984.55;1800111;79;21896;-73
2022/01/31 02:55:04;;;;;;;3.20;1.55;;;;;;;1.30;76.36;97977.44;1754503;79;21038;-73
2022/01/31 02:57:31;;;;;;;1.15;0.75;;;;;;;1.31;76.25;97985.59;1806664;79;21509;-73
2022/01/31 02:59:58;;;;;;;1.57;0.80;;;;;;;1.31;76.15;97986.41;1798845;79;21028;-76
2022/01/31 03:02:26;;;;;;;2.00;0.82;;;;;;;1.32;76.07;97985.47;1784711;79;20926;-74
2022/01/31 03:04:52;;;;;;;1.60;0.70;;;;;;;1.34;76.00;97993.14;1800490;79;22765;-75
2022/01/31 03:07:19;;;;;;;1.42;0.70;;;;;;;1.34;75.87;97982.27;1805919;79;21339;-75
2022/01/31 03:09:47;;;;;;;1.42;0.80;;;;;;;1.33;75.77;97989.72;1786499;79;20983;-75
2022/01/31 03:12:18;;;;;;;1.67;0.90;;;;;;;1.34;75.70;97985.34;1753497;80;20981;-74
2022/01/31 03:14:46;;;;;;;2.00;0.90;;;;;;;1.32;75.67;97991.14;1777572;80;20969;-75
2022/01/31 03:17:14;;;;;;;1.27;0.88;;;;;;;1.32;75.63;97984.17;1779788;79;21846;-75
2022/01/31 03:19:42;;;;;;;1.70;0.93;;;;;;;1.31;75.58;97984.30;1789537;79;20986;-75
2022/01/31 03:22:12;;;;;;;1.35;0.90;;;;;;;1.29;75.57;97987.50;1786894;79;21082;-74
2022/01/31 03:24:42;;;;;;;1.95;1.35;;;;;;;1.28;75.55;97987.97;1775490;80;20968;-75
2022/01/31 03:27:08;;;;;;;2.10;1.30;;;;;;;1.27;75.50;97986.33;1754174;80;21134;-73
2022/01/31 03:29:35;;;;;;;1.55;1.12;;;;;;;1.25;75.49;97981.69;1783354;79;22199;-74
2022/01/31 03:32:02;;;;;;;1.62;0.90;;;;;;;1.24;75.50;97986.55;1789405;79;20979;-74
2022/01/31 03:34:29;;;;;;;1.98;1.05;;;;;;;1.22;75.58;97980.65;1794141;79;20944;-74
2022/01/31 03:36:56;;;;;;;1.12;0.60;;;;;;;1.20;75.66;97983.02;1792235;77;20987;-76
2022/01/31 03:39:25;;;;;;;2.40;0.98;;;;;;;1.17;75.75;97989.30;1779383;79;21426;-76
2022/01/31 03:41:51;;;;;;;1.80;0.82;;;;;;;1.13;75.92;97978.30;1778013;79;21557;-74
2022/01/31 03:44:18;;;;;;;1.80;0.80;;;;;;;1.09;76.05;97987.30;1771374;79;20971;-74
2022/01/31 03:46:46;;;;;;;1.60;1.00;;;;;;;1.06;76.20;97986.25;1772892;79;21035;-74
2022/01/31 03:49:12;;;;;;;0.90;0.70;;;;;;;1.04;76.36;97989.42;1779562;79;21405;-75
2022/01/31 03:51:41;;;;;;;1.00;0.70;;;;;;;1.01;76.51;97983.64;1773995;79;21011;-74
2022/01/31 03:54:07;;;;;;;1.37;0.85;;;;;;;0.98;76.62;98001.61;1775567;79;22210;-75
2022/01/31 03:56:35;;;;;;;2.02;1.42;;;;;;;0.96;76.77;97999.58;1785494;79;20999;-75
2022/01/31 03:59:13;;;;;;;4.83;1.82;;;;;;;0.94;76.99;98005.38;1793681;78;20981;-75
2022/01/31 04:01:40;;;;;;;1.67;1.17;;;;;;;0.92;77.19;97999.48;1772213;79;20964;-75
2022/01/31 04:04:10;;;;;;;1.42;1.00;;;;;;;0.90;77.33;98002.68;1779322;79;20928;-75
2022/01/31 04:06:34;;;;;;;1.75;1.05;;;;;;;0.90;77.53;97999.26;1782313;79;21844;-75
2022/01/31 04:09:00;;;;;;;1.32;0.98;;;;;;;0.89;77.64;98002.33;1778536;79;20928;-75
2022/01/31 04:11:27;;;;;;;2.95;2.05;;;;;;;0.86;77.70;97998.65;1775155;79;21031;-74
2022/01/31 04:13:53;;;;;;;3.62;2.58;;;;;;;0.83;77.67;98001.02;1771044;79;20971;-75
2022/01/31 04:16:19;;;;;;;3.83;2.58;;;;;;;0.83;77.65;98014.48;1771634;79;21423;-74
2022/01/31 04:18:46;;;;;;;3.30;2.02;;;;;;;0.79;77.70;98008.71;1772231;79;21881;-74
2022/01/31 04:21:13;;;;;;;4.87;2.40;;;;;;;0.79;77.80;98006.59;1781763;79;21071;-74
2022/01/31 04:23:40;;;;;;;2.90;1.70;;;;;;;0.77;77.80;98002.81;1771254;79;20952;-74
2022/01/31 04:26:16;;;;;;;3.00;2.15;;;;;;;0.76;77.73;97996.41;1772206;79;21508;-75
2022/01/31 04:28:44;;;;;;;3.35;1.75;;;;;;;0.75;77.64;97998.66;1772601;79;20990;-75
2022/01/31 04:33:48;;;;;;;3.60;2.60;;;;;;;0.69;77.44;98006.47;1802434;79;21384;-75
2022/01/31 04:36:15;;;;;;;2.75;1.40;;;;;;;0.70;77.41;98011.19;1792562;79;20996;-75
2022/01/31 04:38:43;;;;;;;2.35;1.70;;;;;;;0.67;77.39;98003.61;1772498;79;21003;-75
2022/01/31 04:41:09;;;;;;;5.80;3.70;;;;;;;0.68;77.33;98009.19;1773642;79;20999;-75
2022/01/31 04:43:35;;;;;;;2.98;1.80;;;;;;;0.65;77.31;98012.00;1771171;79;21827;-75
2022/01/31 04:46:04;;;;;;;1.40;0.90;;;;;;;0.63;77.32;98009.52;1771255;79;21019;-75
2022/01/31 04:48:31;;;;;;;2.27;1.12;;;;;;;0.62;77.29;98023.46;1783940;79;21028;-74
2022/01/31 04:50:57;;;;;;;2.50;1.10;;;;;;;0.61;77.32;98026.18;1796154;79;21213;-75
2022/01/31 04:53:24;;;;;;;2.47;1.17;;;;;;;0.60;77.37;98029.25;1791446;79;21000;-75
2022/01/31 04:55:50;;;;;;;2.37;1.10;;;;;;;0.60;77.38;98023.23;1782988;79;21876;-75
2022/01/31 04:58:17;;;;;;;2.77;1.50;;;;;;;0.60;77.38;98018.03;1796852;79;20932;-75
2022/01/31 05:00:43;;;;;;;5.42;2.45;;;;;;;0.60;77.41;98023.23;1800869;78;20992;-72
2022/01/31 05:03:15;;;;;;;5.62;2.80;;;;;;;0.61;77.42;98019.22;1784259;78;21094;-73
2022/01/31 05:05:42;;;;;;;7.05;2.80;;;;;;;0.61;77.35;98020.98;1795152;79;21015;-73
2022/01/31 05:08:08;;;;;;;6.62;3.50;;;;;;;0.62;77.32;98022.16;1782731;79;21688;-74
2022/01/31 05:10:42;;;;;;;5.35;3.40;;;;;;;0.65;77.29;98014.60;1786513;79;20972;-74
2022/01/31 05:13:04;;;;;;;3.98;2.67;;;;;;;0.66;77.29;98012.35;1783167;79;21047;-76
2022/01/31 05:15:32;;;;;;;3.15;2.27;;;;;;;0.67;77.27;98011.41;1801064;78;21477;-76
2022/01/31 05:17:58;;;;;;;3.33;1.98;;;;;;;0.67;77.29;98023.09;1771550;79;20940;-74
2022/01/31 05:20:26;;;;;;;2.95;2.17;;;;;;;0.67;77.30;98016.60;1780376;79;22484;-82
2022/01/31 05:22:52;;;;;;;2.17;1.22;;;;;;;0.67;77.27;98023.92;1801103;79;20968;-80
2022/01/31 05:25:18;;;;;;;1.90;1.10;;;;;;;0.66;77.28;98017.55;1772060;79;20940;-79
2022/01/31 05:27:45;;;;;;;1.92;0.80;;;;;;;0.67;77.29;98026.99;1772012;79;20972;-79
2022/01/31 05:30:12;;;;;;;2.25;1.30;;;;;;;0.65;77.34;98025.81;1773887;79;21526;-81
2022/01/31 05:32:38;;;;;;;1.87;1.00;;;;;;;0.65;77.38;98031.02;1771138;79;21773;-78
2022/01/31 05:35:05;;;;;;;1.30;0.90;;;;;;;0.64;77.42;98036.33;1771313;81;20881;-80
2022/01/31 05:37:33;;;;;;;1.80;0.88;;;;;;;0.63;77.44;98045.89;1790135;79;20980;-75
2022/01/31 05:39:59;;;;;;;6.10;5.00;;;;;;;0.62;77.38;98049.44;1801447;78;20941;-75
2022/01/31 05:42:25;;;;;;;2.05;1.15;;;;;;;0.61;77.36;98045.19;1772644;79;21430;-77
2022/01/31 05:44:52;;;;;;;1.85;1.40;;;;;;;0.62;77.24;98061.60;1779600;78;21817;-74
2022/01/31 05:47:18;;;;;;;2.67;1.80;;;;;;;0.63;77.25;98056.76;1774542;79;21030;-76
2022/01/31 05:49:44;;;;;;;3.22;2.00;;;;;;;0.65;77.28;98066.08;1782574;79;21003;-73
2022/01/31 05:52:11;;;;;;;2.42;1.67;;;;;;;0.65;77.29;98071.28;1800253;79;21019;-74
2022/01/31 05:54:39;;;;;;;2.50;1.30;;;;;;;0.66;77.31;98077.30;1802490;78;20940;-75
2022/01/31 05:57:06;;;;;;;3.10;1.60;;;;;;;0.68;77.36;98080.63;1784261;78;22522;-74
2022/01/31 05:59:33;;;;;;;1.82;1.00;;;;;;;0.69;77.25;98088.78;1770520;79;21035;-74
2022/01/31 06:02:01;;;;;;;2.90;1.40;;;;;;;0.68;77.21;98089.25;1783487;79;20948;-73
2022/01/31 06:04:29;;;;;;;2.52;0.98;;;;;;;0.70;77.05;98090.43;1781353;79;21486;-74
2022/01/31 06:06:58;;;;;;;1.85;1.00;;;;;;;0.71;76.84;98091.61;1784776;79;20941;-73
2022/01/31 06:09:27;;;;;;;0.93;0.62;;;;;;;0.74;76.72;98090.54;1802625;79;21800;-72
2022/01/31 06:11:55;;;;;;;1.65;0.80;;;;;;;0.75;76.58;98091.72;1802700;78;20976;-72
2022/01/31 06:14:21;;;;;;;2.62;1.40;;;;;;;0.78;76.56;98097.18;1802678;78;21020;-72
2022/01/31 06:16:48;;;;;;;4.47;2.50;;;;;;;0.79;76.49;98098.36;1773862;79;20952;-72
2022/01/31 06:19:14;;;;;;;6.50;3.50;;;;;;;0.77;76.42;98106.75;1773912;79;21034;-72
2022/01/31 06:21:41;;;;;;;7.72;4.08;;;;;;;0.76;76.44;98113.33;1772104;79;22606;-72
2022/01/31 06:24:10;;;;;;;6.55;3.75;;;;;;;0.74;76.44;98105.66;1771173;79;21396;-72
2022/01/31 06:26:38;;;;;;;3.92;1.85;;;;;;;0.73;76.51;98101.41;1771809;79;20926;-73
2022/01/31 06:29:09;;;;;;;2.00;1.20;;;;;;;0.73;76.53;98103.18;1768110;78;21039;-72
2022/01/31 06:31:38;;;;;;;2.60;1.60;;;;;;;0.73;76.53;98105.78;1801969;79;20928;-72
2022/01/31 06:34:05;;;;;;;3.35;1.80;;;;;;;0.75;76.56;98106.48;1801612;79;22208;-72
2022/01/31 06:36:32;;;;;;;2.47;1.22;;;;;;;0.74;76.53;98117.35;1802357;77;21086;-73
2022/01/31 06:39:00;;;;;;;1.70;1.17;;;;;;;0.72;76.55;98111.92;1796370;79;20912;-72
2022/01/31 06:41:26;;;;;;;2.25;1.50;;;;;;;0.70;76.55;98118.53;1780965;80;21445;-72
2022/01/31 06:43:53;;;;;;;3.08;1.60;;;;;;;0.69;76.64;98119.95;1780654;79;21031;-72
2022/01/31 06:46:19;;;;;;;2.15;1.30;;;;;;;0.70;76.72;98119.01;1783921;79;22186;-73
2022/01/31 06:48:46;;;;;;;1.65;0.85;;;;;;;0.69;76.71;98121.25;1773737;79;20932;-73
2022/01/31 06:51:13;;;;;;;2.15;1.00;;;;;;;0.68;76.68;98123.03;1776236;80;21016;-72
2022/01/31 06:53:40;;;;;;;1.45;0.98;;;;;;;0.68;76.67;98123.50;1790717;79;21039;-74
2022/01/31 06:56:07;;;;;;;1.32;0.80;;;;;;;0.71;76.70;98128.45;1780780;80;21074;-73
2022/01/31 06:58:34;;;;;;;1.60;0.80;;;;;;;0.72;76.62;98134.00;1782593;79;21836;-73
2022/01/31 07:01:00;;;;;;;2.17;0.80;;;;;;;0.71;76.62;98138.84;1781188;79;20984;-73
2022/01/31 07:03:26;;;;;;;2.47;1.00;;;;;;;0.72;76.55;98136.13;1781983;79;20932;-73
2022/01/31 07:05:57;;;;;;;2.30;1.27;;;;;;;0.72;76.53;98141.80;1794488;79;21031;-74
2022/01/31 07:08:27;;;;;;;2.35;1.40;;;;;;;0.72;76.47;98140.03;1785139;79;21102;-73
2022/01/31 07:10:53;;;;;;;2.40;1.30;;;;;;;0.74;76.45;98149.00;1754147;80;21793;-77
2022/01/31 07:15:56;;;;;;;1.55;1.07;;;;;;;0.77;76.22;98150.06;1782004;79;20997;-75
2022/01/31 07:18:23;;;;;;;2.58;1.40;;;;;;;0.76;76.00;98146.64;1813024;78;20986;-80
2022/01/31 07:20:52;;;;;;;2.87;1.17;;;;;;;0.80;75.84;98145.95;1809880;79;21009;-80
2022/01/31 07:23:37;;;;;;;2.45;1.40;;;;;;;0.83;75.65;98140.52;1813107;79;22207;-79
2022/01/31 07:25:47;;;;;;;4.00;1.77;;;;;;;0.86;75.38;98143.70;1804164;79;21085;-79
2022/01/31 07:28:19;;;;;;;4.20;1.67;;;;;;;0.89;75.16;98140.54;1801299;79;20980;-78
2022/01/31 07:30:47;;;;;;;3.12;1.40;;;;;;;0.91;74.95;98145.97;1739743;81;20996;-79
2022/01/31 07:33:16;;;;;;;4.25;2.22;;;;;;;0.95;74.74;98151.75;1783301;79;21054;-81
2022/01/31 07:35:43;;;;;;;3.47;1.95;;;;;;;0.99;74.64;98155.80;1752524;80;21848;-83
2022/01/31 07:38:12;;;;;;;4.85;2.40;;;;;;;0.99;74.33;98150.59;1792100;77;20928;-79
2022/01/31 07:40:39;;;;;;;3.50;1.52;;;;;;;1.02;74.22;98152.48;1783388;79;20928;-80
2022/01/31 07:43:06;;;;;;;2.72;1.50;;;;;;;1.03;74.19;98151.53;1789012;79;21449;-77
2022/01/31 07:45:33;;;;;;;3.87;1.80;;;;;;;1.00;75.01;98138.78;1795715;79;20996;-80
2022/01/31 07:48:00;;;;;;;3.95;2.30;;;;;;;0.99;74.91;98154.49;1794688;77;22139;-80
2022/01/31 07:50:27;;;;;;;3.27;1.80;;;;;;;1.00;75.81;98153.08;1751359;82;20957;-80
2022/01/31 07:52:54;;;;;;;4.60;2.85;;;;;;;1.04;75.91;98156.26;1783391;79;21049;-77
2022/01/31 07:55:21;;;;;;;3.52;1.92;;;;;;;1.06;75.80;98155.66;1799682;79;21388;-80
2022/01/31 07:57:47;;;;;;;3.72;2.22;;;;;;;1.08;76.02;98150.72;1791471;79;20988;-78
2022/01/31 08:00:15;;;;;;;3.62;2.20;;;;;;;1.11;76.41;98150.48;1812650;79;21746;-78
2022/01/31 08:02:42;;;;;;;2.10;1.40;;;;;;;1.18;76.20;98148.73;1777825;80;21016;-77
2022/01/31 08:05:09;;;;;;;2.45;1.60;;;;;;;1.20;75.60;98153.33;1751357;82;20964;-77
2022/01/31 08:07:38;;;;;;;2.75;1.90;;;;;;;1.25;75.44;98144.69;1808091;78;20925;-77
2022/01/31 08:10:05;;;;;;;2.40;1.20;;;;;;;1.29;75.37;98151.33;1782393;80;20977;-77
2022/01/31 08:12:35;;;;;;;1.87;0.98;;;;;;;1.32;74.63;98161.48;1812753;79;21833;-75
2022/01/31 08:15:03;;;;;;;2.20;1.00;;;;;;;1.40;74.84;98156.52;1812629;79;22331;-77
2022/01/31 08:17:30;;;;;;;1.95;1.10;;;;;;;1.49;74.72;98161.02;1779407;79;20945;-76
2022/01/31 08:19:56;;;;;;;2.85;1.20;;;;;;;1.56;73.59;98160.90;1802306;79;20959;-76
2022/01/31 08:22:23;;;;;;;2.15;1.00;;;;;;;1.61;73.24;98165.25;1814457;79;20955;-81
2022/01/31 08:24:49;;;;;;;1.72;0.98;;;;;;;1.67;73.09;98169.17;1815767;79;21876;-78
2022/01/31 08:27:16;;;;;;;6.03;3.52;;;;;;;1.72;72.93;98175.65;1801131;79;20955;-78
2022/01/31 08:29:42;;;;;;;1.82;0.90;;;;;;;1.76;72.17;98171.53;1814235;77;20967;-79
2022/01/31 08:32:17;;;;;;;2.75;1.50;;;;;;;1.78;71.82;98178.73;1803612;79;21403;-81
2022/01/31 08:37:25;;;;;;;3.62;2.20;;;;;;;1.78;71.41;98174.36;1808742;78;22997;-79
2022/01/31 08:39:52;;;;;;;19.92;9.60;;;;;;;1.79;71.81;98186.89;1784874;79;21055;-82
2022/01/31 08:42:18;;;;;;;2.75;1.40;;;;;;;1.82;71.89;98185.34;1814248;77;20971;-78
2022/01/31 08:44:47;;;;;;;1.12;0.60;;;;;;;1.82;71.17;98191.38;1812190;79;21467;-75
2022/01/31 08:47:14;;;;;;;1.60;1.10;;;;;;;1.82;71.12;98202.26;1805913;77;21066;-78
2022/01/31 08:49:40;;;;;;;0.68;0.50;;;;;;;1.74;69.92;98206.78;1808860;79;22214;-78
2022/01/31 08:52:13;;;;;;;1.02;0.57;;;;;;;1.70;70.04;98223.09;1788346;79;20932;-78
2022/01/31 08:54:44;;;;;;;0.93;0.60;;;;;;;1.63;70.35;98190.67;1789418;79;20959;-78
2022/01/31 08:57:13;;;;;;;0.98;0.60;;;;;;;1.56;70.27;98192.59;1749579;80;21017;-79
2022/01/31 08:59:44;;;;;;;1.05;0.68;;;;;;;1.53;71.11;98204.05;1756797;80;20957;-79
2022/01/31 09:02:14;;;;;;;1.85;0.90;;;;;;;1.52;71.54;98202.39;1780429;80;21832;-79
2022/01/31 09:04:47;;;;;;;1.80;0.90;;;;;;;1.51;71.59;98200.73;1780918;79;21043;-78
2022/01/31 09:07:10;;;;;;;3.02;1.25;;;;;;;1.48;71.57;98204.06;1783944;79;20952;-79
2022/01/31 09:09:36;;;;;;;1.70;0.90;;;;;;;1.51;72.11;98215.05;1784419;79;20997;-81
2022/01/31 09:12:06;;;;;;;2.60;1.12;;;;;;;1.50;72.26;98197.78;1797369;79;21044;-81
2022/01/31 09:14:33;;;;;;;2.77;1.20;;;;;;;1.52;72.76;98193.77;1764718;80;21783;-81
2022/01/31 09:17:01;;;;;;;3.22;1.30;;;;;;;1.50;72.83;98193.88;1790090;79;20950;-81
2022/01/31 09:19:28;;;;;;;5.12;2.42;;;;;;;1.51;73.13;98196.02;1790702;77;20992;-81
2022/01/31 09:21:54;;;;;;;2.25;1.30;;;;;;;1.52;72.97;98192.46;1761015;80;21521;-81
2022/01/31 09:24:21;;;;;;;3.37;2.05;;;;;;;1.43;72.31;98193.99;1781779;79;20956;-80
2022/01/31 09:26:47;;;;;;;2.12;1.30;;;;;;;1.36;73.32;98207.96;1755022;79;21773;-81
2022/01/31 09:29:16;;;;;;;2.52;1.12;;;;;;;1.36;73.86;98209.27;1788781;79;20977;-81
2022/01/31 09:31:43;;;;;;;2.62;1.00;;;;;;;1.36;73.50;98205.83;1810841;79;20981;-79
2022/01/31 09:34:10;;;;;;;2.10;0.80;;;;;;;1.38;73.33;98215.17;1800430;79;21028;-81
2022/01/31 09:36:37;;;;;;;1.40;0.85;;;;;;;1.36;72.17;98211.86;1782168;79;20927;-84
2022/01/31 09:39:04;;;;;;;1.90;0.90;;;;;;;1.37;72.45;98205.71;1777863;78;22179;-84
2022/01/31 09:41:34;;;;;;;2.77;1.02;;;;;;;1.47;72.14;98210.21;1771201;79;20934;-85
2022/01/31 09:44:11;;;;;;;1.65;1.20;;;;;;;1.53;72.09;98216.23;1787716;78;20995;-83
2022/01/31 09:47:04;;;;;;;1.82;1.00;;;;;;;1.60;71.06;98201.80;1798888;78;21035;-82
2022/01/31 09:49:18;;;;;;;2.33;1.00;;;;;;;1.66;70.25;98207.38;1761616;79;21024;-81
2022/01/31 09:51:45;;;;;;;1.98;1.25;;;;;;;1.73;69.94;98192.91;1780842;79;21822;-78
2022/01/31 09:54:11;;;;;;;2.95;1.22;;;;;;;1.79;68.71;98203.33;1773087;79;20925;-78
2022/01/31 09:56:41;;;;;;;2.05;1.20;;;;;;;1.81;67.87;98201.91;1772926;79;20991;-78
2022/01/31 09:59:09;;;;;;;4.17;2.75;;;;;;;1.83;67.62;98201.31;1750748;78;21004;-78
2022/01/31 10:01:52;;;;;;;3.35;1.70;;;;;;;1.86;67.37;98204.52;1782156;79;20940;-79
2022/01/31 10:04:21;;;;;;;3.95;1.80;;;;;;;1.90;67.10;98217.63;1784114;79;21848;-80
2022/01/31 10:06:51;;;;;;;2.30;1.30;;;;;;;1.88;66.42;98214.80;1760504;81;20936;-78
2022/01/31 10:09:28;;;;;;;3.15;1.30;;;;;;;1.85;66.16;98210.67;1778707;79;21626;-76
2022/01/31 10:12:18;;;;;;;3.33;1.55;;;;;;;1.85;66.40;98205.95;1782445;79;21518;-76
2022/01/31 10:17:34;;;;;;;1.52;0.72;;;;;;;1.75;65.25;98224.53;1798824;79;21399;-76
2022/01/31 10:20:08;;;;;;;2.10;1.00;;;;;;;1.68;65.54;98238.00;1786413;78;20928;-78
2022/01/31 10:22:56;;;;;;;4.00;1.10;;;;;;;1.67;65.39;98236.34;1776605;79;20968;-75
2022/01/31 10:25:23;;;;;;;1.92;1.20;;;;;;;1.67;65.35;98246.76;1778030;79;21529;-80
2022/01/31 10:27:52;;;;;;;1.95;1.20;;;;;;;1.66;65.43;98239.90;1774947;78;20935;-78
2022/01/31 10:30:26;;;;;;;3.27;1.10;;;;;;;1.66;65.30;98241.67;1763020;81;21835;-76
2022/01/31 10:32:55;;;;;;;1.70;0.90;;;;;;;1.67;64.93;98244.16;1784476;79;21086;-77
2022/01/31 10:35:28;;;;;;;1.80;1.10;;;;;;;1.70;65.31;98236.10;1775712;79;21078;-83
2022/01/31 10:38:04;;;;;;;2.37;1.30;;;;;;;1.76;65.31;98235.29;1775165;79;21095;-80
2022/01/31 10:57:15;;;;;;;3.27;1.67;;;;;;;2.09;64.21;98238.33;1791062;78;22489;-80
2022/01/31 10:59:45;;;;;;;2.62;1.60;;;;;;;2.14;64.27;98239.63;1771294;79;21605;-81
2022/01/31 11:02:19;;;;;;;3.40;1.60;;;;;;;2.18;64.33;98248.84;1785930;79;21031;-84
2022/01/31 11:04:47;;;;;;;2.98;1.60;;;;;;;2.18;64.81;98244.94;1794132;78;20956;-84
2022/01/31 11:07:24;;;;;;;3.12;1.75;;;;;;;2.19;65.18;98264.82;1794185;79;21027;-84
2022/01/31 11:09:52;;;;;;;1.92;1.32;;;;;;;2.17;65.38;98258.08;1775969;79;21818;-84
2022/01/31 11:12:23;;;;;;;3.10;1.82;;;;;;;2.04;65.78;98253.02;1754596;78;21561;-84
2022/01/31 11:14:50;;;;;;;4.45;2.30;;;;;;;1.85;66.16;98255.41;1749273;79;21036;-84
2022/01/31 11:17:18;;;;;;;6.05;2.83;;;;;;;1.69;66.43;98264.38;1774311;79;21059;-83
2022/01/31 11:19:54;;;;;;;5.72;2.17;;;;;;;1.56;67.10;98259.77;1762645;81;20995;-80
2022/01/31 11:22:17;;;;;;;3.83;2.30;;;;;;;1.50;67.71;98269.33;1772610;79;21823;-84
2022/01/31 11:24:49;;;;;;;4.65;2.10;;;;;;;1.46;68.10;98269.22;1747692;81;21173;-82
2022/01/31 11:27:19;;;;;;;3.25;1.77;;;;;;;1.44;68.43;98273.20;1773996;79;21039;-84
2022/01/31 11:29:48;;;;;;;2.10;1.20;;;;;;;1.44;68.36;98276.28;1781449;79;21071;-85
2022/01/31 11:32:15;;;;;;;2.65;1.55;;;;;;;1.41;68.05;98268.25;1782657;79;20988;-84
2022/01/31 11:34:44;;;;;;;2.52;1.52;;;;;;;1.39;68.01;98263.64;1800134;79;22223;-85
2022/01/31 11:37:13;;;;;;;3.72;1.50;;;;;;;1.37;67.52;98273.81;1771493;79;20936;-84
2022/01/31 11:39:44;;;;;;;2.45;1.50;;;;;;;1.32;67.30;98262.44;1778718;79;20990;-84
2022/01/31 11:42:10;;;;;;;2.02;1.22;;;;;;;1.31;67.31;98262.56;1781223;79;21556;-83
2022/01/31 11:45:10;;;;;;;3.77;1.37;;;;;;;1.32;67.29;98257.70;1782585;79;21387;-85
2022/01/31 11:47:38;;;;;;;2.30;1.42;;;;;;;1.35;67.10;98261.37;1785939;79;22437;-84
2022/01/31 11:50:13;;;;;;;3.42;1.62;;;;;;;1.42;66.84;98266.47;1812680;79;20983;-84
2022/01/31 11:52:59;;;;;;;2.02;0.90;;;;;;;1.46;66.22;98282.22;1812684;78;20982;-83
2022/01/31 11:55:31;;;;;;;1.05;0.70;;;;;;;1.48;65.23;98266.02;1782757;79;21521;-84
2022/01/31 11:57:58;;;;;;;1.37;0.85;;;;;;;1.48;64.63;98273.00;1776286;80;20936;-83
2022/01/31 12:00:31;;;;;;;1.95;1.42;;;;;;;1.48;63.90;98271.70;1778084;80;21821;-83
2022/01/31 12:03:01;;;;;;;1.92;0.80;;;;;;;1.49;63.87;98270.27;1780666;79;21394;-83
2022/01/31 12:05:30;;;;;;;3.52;1.20;;;;;;;1.52;62.91;98277.02;1777069;80;20955;-82
2022/01/31 12:08:11;;;;;;;1.85;1.10;;;;;;;1.54;62.55;98277.24;1781042;79;21038;-82
2022/01/31 12:10:44;;;;;;;1.10;0.70;;;;;;;1.56;62.55;98271.95;1809493;79;21031;-83
2022/01/31 12:13:36;;;;;;;1.37;0.70;;;;;;;1.59;62.19;98285.55;1790067;79;21609;-84
2022/01/31 12:16:24;;;;;;;1.70;1.02;;;;;;;1.57;61.58;98284.84;1789846;79;21049;-84
2022/01/31 12:19:35;;;;;;;3.10;1.70;;;;;;;1.55;61.68;98290.63;1808967;77;21035;-83